sensor_id;sensor_type;location;lat;lon;timestamp;pressure;altitude;pressure_sealevel;temperature;humidity
18819;BME280;9537;45.594;9.294;2023-06-14T00:00:00;99092.25;;;22.59;76.21
18819;BME280;9537;45.594;9.294;2023-06-14T00:01:04;99091.19;;;22.60;76.20
18819;BME280;9537;45.594;9.294;2023-06-14T00:02:06;99096.03;;;22.58;76.66
18819;BME280;9537;45.594;9.294;2023-06-14T00:03:09;99091.44;;;22.53;77.26
18819;BME280;9537;45.594;9.294;2023-06-14T00:04:10;99093.31;;;22.47;77.74
18819;BME280;9537;45.594;9.294;2023-06-14T00:05:12;99093.28;;;22.42;78.17
18819;BME280;9537;45.594;9.294;2023-06-14T00:06:13;99089.75;;;22.37;78.44
18819;BME280;9537;45.594;9.294;2023-06-14T00:07:16;99095.44;;;22.35;78.62
18819;BME280;9537;45.594;9.294;2023-06-14T00:08:17;99095.94;;;22.32;78.86
18819;BME280;9537;45.594;9.294;2023-06-14T00:09:19;99098.34;;;22.29;78.79
18819;BME280;9537;45.594;9.294;2023-06-14T00:10:20;99098.34;;;22.29;78.39
18819;BME280;9537;45.594;9.294;2023-06-14T00:11:21;99102.88;;;22.23;78.42
18819;BME280;9537;45.594;9.294;2023-06-14T00:12:22;99099.66;;;22.26;78.22
18819;BME280;9537;45.594;9.294;2023-06-14T00:13:24;99098.88;;;22.25;78.47
18819;BME280;9537;45.594;9.294;2023-06-14T00:14:25;99103.97;;;22.22;79.17
18819;BME280;9537;45.594;9.294;2023-06-14T00:15:27;99099.13;;;22.19;79.24
18819;BME280;9537;45.594;9.294;2023-06-14T00:16:28;99095.94;;;22.27;78.59
18819;BME280;9537;45.594;9.294;2023-06-14T00:17:30;99098.34;;;22.29;78.20
18819;BME280;9537;45.594;9.294;2023-06-14T00:18:31;99094.81;;;22.23;77.89
18819;BME280;9537;45.594;9.294;2023-06-14T00:19:33;99093.22;;;22.22;77.49
18819;BME280;9537;45.594;9.294;2023-06-14T00:20:35;99100.19;;;22.18;77.84
18819;BME280;9537;45.594;9.294;2023-06-14T00:21:37;99093.13;;;22.12;77.87
18819;BME280;9537;45.594;9.294;2023-06-14T00:22:39;99092.13;;;22.18;77.75
18819;BME280;9537;45.594;9.294;2023-06-14T00:23:41;99094.53;;;22.19;77.44
18819;BME280;9537;45.594;9.294;2023-06-14T00:24:42;99093.44;;;22.15;77.63
18819;BME280;9537;45.594;9.294;2023-06-14T00:25:44;99094.19;;;22.11;77.72
18819;BME280;9537;45.594;9.294;2023-06-14T00:26:44;99086.09;;;22.05;78.06
18819;BME280;9537;45.594;9.294;2023-06-14T00:27:46;99098.22;;;22.08;77.94
18819;BME280;9537;45.594;9.294;2023-06-14T00:28:47;99092.31;;;22.11;77.52
18819;BME280;9537;45.594;9.294;2023-06-14T00:29:48;99098.22;;;22.08;77.55
18819;BME280;9537;45.594;9.294;2023-06-14T00:30:49;99089.88;;;22.04;78.08
18819;BME280;9537;45.594;9.294;2023-06-14T00:31:51;99092.81;;;22.03;78.21
18819;BME280;9537;45.594;9.294;2023-06-14T00:32:52;99081.81;;;22.04;78.43
18819;BME280;9537;45.594;9.294;2023-06-14T00:33:53;99080.19;;;22.03;78.45
18819;BME280;9537;45.594;9.294;2023-06-14T00:34:54;99087.72;;;22.01;78.45
18819;BME280;9537;45.594;9.294;2023-06-14T00:35:56;99083.13;;;22.02;78.39
18819;BME280;9537;45.594;9.294;2023-06-14T00:36:57;99085.06;;;22.07;78.43
18819;BME280;9537;45.594;9.294;2023-06-14T00:38:00;99091.44;;;22.00;78.20
18819;BME280;9537;45.594;9.294;2023-06-14T00:39:02;99088.47;;;21.97;78.22
18819;BME280;9537;45.594;9.294;2023-06-14T00:40:05;99087.66;;;21.91;78.23
18819;BME280;9537;45.594;9.294;2023-06-14T00:41:06;99089.81;;;21.94;77.83
18819;BME280;9537;45.594;9.294;2023-06-14T00:42:07;99087.69;;;21.96;77.24
18819;BME280;9537;45.594;9.294;2023-06-14T00:43:08;99090.66;;;21.95;76.82
18819;BME280;9537;45.594;9.294;2023-06-14T00:44:10;99085.78;;;21.97;76.62
18819;BME280;9537;45.594;9.294;2023-06-14T00:45:11;99084.97;;;21.91;76.44
18819;BME280;9537;45.594;9.294;2023-06-14T00:46:13;99094.06;;;21.85;76.53
18819;BME280;9537;45.594;9.294;2023-06-14T00:47:14;99081.69;;;21.79;76.38
18819;BME280;9537;45.594;9.294;2023-06-14T00:48:16;99089.19;;;21.77;76.48
18819;BME280;9537;45.594;9.294;2023-06-14T00:49:17;99091.53;;;21.68;76.40
18819;BME280;9537;45.594;9.294;2023-06-14T00:50:20;99100.13;;;21.65;76.30
18819;BME280;9537;45.594;9.294;2023-06-14T00:51:22;99092.53;;;21.57;76.41
18819;BME280;9537;45.594;9.294;2023-06-14T00:52:36;99092.78;;;21.50;76.99
18819;BME280;9537;45.594;9.294;2023-06-14T00:53:38;99094.66;;;21.50;77.53
18819;BME280;9537;45.594;9.294;2023-06-14T00:54:41;99096.22;;;21.46;77.53
18819;BME280;9537;45.594;9.294;2023-06-14T00:55:42;99097.56;;;21.43;77.71
18819;BME280;9537;45.594;9.294;2023-06-14T00:56:44;99103.38;;;21.35;78.39
18819;BME280;9537;45.594;9.294;2023-06-14T00:57:45;99104.97;;;21.31;78.76
18819;BME280;9537;45.594;9.294;2023-06-14T00:58:48;99102.78;;;21.28;79.12
18819;BME280;9537;45.594;9.294;2023-06-14T00:59:49;99104.38;;;21.29;79.03
18819;BME280;9537;45.594;9.294;2023-06-14T01:00:51;99108.94;;;21.23;79.73
18819;BME280;9537;45.594;9.294;2023-06-14T01:01:51;99111.06;;;21.21;79.85
18819;BME280;9537;45.594;9.294;2023-06-14T01:02:53;99104.56;;;21.17;80.14
18819;BME280;9537;45.594;9.294;2023-06-14T01:03:55;99102.16;;;21.15;80.41
18819;BME280;9537;45.594;9.294;2023-06-14T01:04:57;99110.44;;;21.14;80.77
18819;BME280;9537;45.594;9.294;2023-06-14T01:06:03;99117.13;;;21.06;80.76
18819;BME280;9537;45.594;9.294;2023-06-14T01:07:12;99112.28;;;21.08;80.78
18819;BME280;9537;45.594;9.294;2023-06-14T01:08:22;99111.25;;;21.14;80.76
18819;BME280;9537;45.594;9.294;2023-06-14T01:09:32;99112.94;;;21.21;80.68
18819;BME280;9537;45.594;9.294;2023-06-14T01:10:45;99109.41;;;21.20;80.59
18819;BME280;9537;45.594;9.294;2023-06-14T01:11:56;99110.78;;;21.18;81.00
18819;BME280;9537;45.594;9.294;2023-06-14T01:13:05;99106.97;;;21.13;81.07
18819;BME280;9537;45.594;9.294;2023-06-14T01:14:09;99104.28;;;21.13;80.89
18819;BME280;9537;45.594;9.294;2023-06-14T01:15:13;99113.91;;;21.09;80.20
18819;BME280;9537;45.594;9.294;2023-06-14T01:16:15;99109.88;;;21.07;80.58
18819;BME280;9537;45.594;9.294;2023-06-14T01:17:16;99114.66;;;21.05;81.06
18819;BME280;9537;45.594;9.294;2023-06-14T01:18:18;99120.25;;;20.98;81.31
18819;BME280;9537;45.594;9.294;2023-06-14T01:19:20;99120.56;;;21.02;81.04
18819;BME280;9537;45.594;9.294;2023-06-14T01:20:28;99123.00;;;21.03;80.63
18819;BME280;9537;45.594;9.294;2023-06-14T01:21:29;99124.03;;;21.02;80.05
18819;BME280;9537;45.594;9.294;2023-06-14T01:22:52;99127.59;;;21.08;80.05
18819;BME280;9537;45.594;9.294;2023-06-14T01:23:53;99121.41;;;21.07;80.35
18819;BME280;9537;45.594;9.294;2023-06-14T01:24:55;99121.41;;;21.07;80.20
18819;BME280;9537;45.594;9.294;2023-06-14T01:25:55;99123.28;;;21.07;79.98
18819;BME280;9537;45.594;9.294;2023-06-14T01:26:57;99116.56;;;21.04;80.53
18819;BME280;9537;45.594;9.294;2023-06-14T01:28:01;99125.69;;;21.08;80.56
18819;BME280;9537;45.594;9.294;2023-06-14T01:29:04;99123.00;;;21.08;80.58
18819;BME280;9537;45.594;9.294;2023-06-14T01:30:07;99130.53;;;21.06;80.87
18819;BME280;9537;45.594;9.294;2023-06-14T01:31:10;99130.53;;;21.06;80.90
18819;BME280;9537;45.594;9.294;2023-06-14T01:32:13;99126.53;;;21.09;80.76
18819;BME280;9537;45.594;9.294;2023-06-14T01:33:19;99116.16;;;21.18;80.23
18819;BME280;9537;45.594;9.294;2023-06-14T01:34:20;99132.25;;;21.18;79.64
18819;BME280;9537;45.594;9.294;2023-06-14T01:35:22;99124.50;;;21.21;79.74
18819;BME280;9537;45.594;9.294;2023-06-14T01:36:25;99121.00;;;21.21;79.93
18819;BME280;9537;45.594;9.294;2023-06-14T01:37:29;99119.34;;;21.20;79.71
18819;BME280;9537;45.594;9.294;2023-06-14T01:38:32;99129.81;;;21.16;79.62
18819;BME280;9537;45.594;9.294;2023-06-14T01:39:35;99127.94;;;21.17;79.58
18819;BME280;9537;45.594;9.294;2023-06-14T01:40:36;99116.94;;;21.18;79.62
18819;BME280;9537;45.594;9.294;2023-06-14T01:41:39;99123.63;;;21.15;79.47
18819;BME280;9537;45.594;9.294;2023-06-14T01:42:41;99121.97;;;21.09;79.78
18819;BME280;9537;45.594;9.294;2023-06-14T01:43:44;99124.66;;;21.09;79.99
18819;BME280;9537;45.594;9.294;2023-06-14T01:44:46;99120.84;;;21.05;79.56
18819;BME280;9537;45.594;9.294;2023-06-14T01:45:50;99121.66;;;21.06;79.70
18819;BME280;9537;45.594;9.294;2023-06-14T01:46:53;99121.97;;;21.09;79.70
18819;BME280;9537;45.594;9.294;2023-06-14T01:47:55;99113.94;;;21.14;79.73
18819;BME280;9537;45.594;9.294;2023-06-14T01:48:56;99111.25;;;21.14;79.51
18819;BME280;9537;45.594;9.294;2023-06-14T01:49:58;99120.38;;;21.13;79.65
18819;BME280;9537;45.594;9.294;2023-06-14T01:50:59;99112.91;;;21.15;79.05
18819;BME280;9537;45.594;9.294;2023-06-14T01:52:00;99121.16;;;21.09;79.34
18819;BME280;9537;45.594;9.294;2023-06-14T01:53:02;99112.84;;;21.10;79.74
18819;BME280;9537;45.594;9.294;2023-06-14T01:54:05;99116.84;;;21.08;79.88
18819;BME280;9537;45.594;9.294;2023-06-14T01:55:06;99120.31;;;21.03;80.06
18819;BME280;9537;45.594;9.294;2023-06-14T01:56:09;99120.31;;;21.03;80.45
18819;BME280;9537;45.594;9.294;2023-06-14T01:57:11;99126.72;;;21.02;80.06
18819;BME280;9537;45.594;9.294;2023-06-14T01:58:12;99122.94;;;20.98;80.37
18819;BME280;9537;45.594;9.294;2023-06-14T01:59:14;99123.75;;;20.99;80.77
18819;BME280;9537;45.594;9.294;2023-06-14T02:00:15;99115.13;;;20.97;81.06
18819;BME280;9537;45.594;9.294;2023-06-14T02:01:18;99121.06;;;20.99;80.62
18819;BME280;9537;45.594;9.294;2023-06-14T02:02:19;99117.56;;;20.98;80.21
18819;BME280;9537;45.594;9.294;2023-06-14T02:03:21;99114.03;;;20.92;80.21
18819;BME280;9537;45.594;9.294;2023-06-14T02:04:21;99118.81;;;20.90;80.39
18819;BME280;9537;45.594;9.294;2023-06-14T02:05:24;99109.75;;;20.97;80.23
18819;BME280;9537;45.594;9.294;2023-06-14T02:06:26;99117.81;;;20.97;79.72
18819;BME280;9537;45.594;9.294;2023-06-14T02:07:28;99118.09;;;21.00;79.66
18819;BME280;9537;45.594;9.294;2023-06-14T02:08:29;99107.06;;;20.97;79.47
18819;BME280;9537;45.594;9.294;2023-06-14T02:09:32;99114.63;;;21.00;79.50
18819;BME280;9537;45.594;9.294;2023-06-14T02:10:32;99116.75;;;20.98;79.73
18819;BME280;9537;45.594;9.294;2023-06-14T02:11:34;99114.38;;;21.01;80.13
18819;BME280;9537;45.594;9.294;2023-06-14T02:12:35;99113.31;;;21.02;79.75
18819;BME280;9537;45.594;9.294;2023-06-14T02:13:36;99103.06;;;20.99;79.88
18819;BME280;9537;45.594;9.294;2023-06-14T02:14:37;99112.19;;;20.98;79.93
18819;BME280;9537;45.594;9.294;2023-06-14T02:15:39;99108.94;;;20.96;79.77
18819;BME280;9537;45.594;9.294;2023-06-14T02:16:40;99108.91;;;20.91;80.24
18819;BME280;9537;45.594;9.294;2023-06-14T02:17:49;99110.53;;;20.92;80.32
18819;BME280;9537;45.594;9.294;2023-06-14T02:18:50;99108.19;;;21.01;80.31
18819;BME280;9537;45.594;9.294;2023-06-14T02:19:51;99111.91;;;20.95;80.20
18819;BME280;9537;45.594;9.294;2023-06-14T02:20:52;99109.47;;;20.93;80.38
18819;BME280;9537;45.594;9.294;2023-06-14T02:21:54;99099.97;;;20.85;80.57
18819;BME280;9537;45.594;9.294;2023-06-14T02:22:55;99104.81;;;20.83;80.97
18819;BME280;9537;45.594;9.294;2023-06-14T02:23:56;99103.75;;;20.84;80.70
18819;BME280;9537;45.594;9.294;2023-06-14T02:25:00;99097.00;;;20.82;80.60
18819;BME280;9537;45.594;9.294;2023-06-14T02:26:01;99108.47;;;20.77;80.81
18819;BME280;9537;45.594;9.294;2023-06-14T02:27:03;99103.13;;;20.77;80.73
18819;BME280;9537;45.594;9.294;2023-06-14T02:28:05;99102.31;;;20.77;80.90
18819;BME280;9537;45.594;9.294;2023-06-14T02:29:06;99097.81;;;20.82;80.96
18819;BME280;9537;45.594;9.294;2023-06-14T02:30:10;99103.47;;;20.86;80.37
18819;BME280;9537;45.594;9.294;2023-06-14T02:31:11;99098.66;;;20.88;80.14
18819;BME280;9537;45.594;9.294;2023-06-14T02:32:13;99097.34;;;20.90;79.79
18819;BME280;9537;45.594;9.294;2023-06-14T02:33:14;99102.16;;;20.88;79.79
18819;BME280;9537;45.594;9.294;2023-06-14T02:34:15;99095.97;;;20.88;79.58
18819;BME280;9537;45.594;9.294;2023-06-14T02:35:18;99095.41;;;20.86;79.39
18819;BME280;9537;45.594;9.294;2023-06-14T02:36:20;99097.50;;;20.79;79.36
18819;BME280;9537;45.594;9.294;2023-06-14T02:37:21;99086.47;;;20.75;79.68
18819;BME280;9537;45.594;9.294;2023-06-14T02:38:23;99086.16;;;20.72;79.19
18819;BME280;9537;45.594;9.294;2023-06-14T02:39:23;99091.53;;;20.72;78.99
18819;BME280;9537;45.594;9.294;2023-06-14T02:40:26;99089.34;;;20.68;79.33
18819;BME280;9537;45.594;9.294;2023-06-14T02:41:27;99089.84;;;20.65;79.69
18819;BME280;9537;45.594;9.294;2023-06-14T02:42:29;99090.19;;;20.69;79.85
18819;BME280;9537;45.594;9.294;2023-06-14T02:43:29;99090.94;;;20.64;79.88
18819;BME280;9537;45.594;9.294;2023-06-14T02:44:31;99091.94;;;20.58;79.85
18819;BME280;9537;45.594;9.294;2023-06-14T02:45:32;99086.06;;;20.61;80.26
18819;BME280;9537;45.594;9.294;2023-06-14T02:46:34;99085.56;;;20.64;80.13
18819;BME280;9537;45.594;9.294;2023-06-14T02:47:35;99090.13;;;20.64;79.91
18819;BME280;9537;45.594;9.294;2023-06-14T02:48:37;99082.59;;;20.66;78.89
18819;BME280;9537;45.594;9.294;2023-06-14T02:49:37;99077.44;;;20.59;79.29
18819;BME280;9537;45.594;9.294;2023-06-14T02:50:39;99075.34;;;20.61;79.60
18819;BME280;9537;45.594;9.294;2023-06-14T02:51:40;99076.88;;;20.57;80.39
18819;BME280;9537;45.594;9.294;2023-06-14T02:52:41;99085.44;;;20.54;80.95
18819;BME280;9537;45.594;9.294;2023-06-14T02:53:42;99071.50;;;20.57;80.77
18819;BME280;9537;45.594;9.294;2023-06-14T02:54:44;99069.34;;;20.54;80.84
18819;BME280;9537;45.594;9.294;2023-06-14T02:55:46;99075.53;;;20.55;81.17
18819;BME280;9537;45.594;9.294;2023-06-14T02:56:48;99074.72;;;20.54;81.23
18819;BME280;9537;45.594;9.294;2023-06-14T02:57:49;99081.72;;;20.55;81.52
18819;BME280;9537;45.594;9.294;2023-06-14T02:58:51;99077.16;;;20.56;81.67
18819;BME280;9537;45.594;9.294;2023-06-14T02:59:52;99076.34;;;20.55;81.43
18819;BME280;9537;45.594;9.294;2023-06-14T03:00:53;99079.03;;;20.55;81.19
18819;BME280;9537;45.594;9.294;2023-06-14T03:01:54;99081.72;;;20.55;81.35
18819;BME280;9537;45.594;9.294;2023-06-14T03:02:56;99075.19;;;20.51;81.41
18819;BME280;9537;45.594;9.294;2023-06-14T03:03:56;99074.13;;;20.52;81.29
18819;BME280;9537;45.594;9.294;2023-06-14T03:04:58;99080.13;;;20.59;80.73
18819;BME280;9537;45.594;9.294;2023-06-14T03:06:01;99073.72;;;20.60;80.48
18819;BME280;9537;45.594;9.294;2023-06-14T03:07:05;99078.25;;;20.60;80.30
18819;BME280;9537;45.594;9.294;2023-06-14T03:08:09;99082.50;;;20.56;80.67
18819;BME280;9537;45.594;9.294;2023-06-14T03:09:11;99077.97;;;20.56;80.99
18819;BME280;9537;45.594;9.294;2023-06-14T03:10:12;99082.75;;;20.54;81.09
18819;BME280;9537;45.594;9.294;2023-06-14T03:11:16;99082.50;;;20.56;81.00
18819;BME280;9537;45.594;9.294;2023-06-14T03:12:20;99080.53;;;20.51;81.21
18819;BME280;9537;45.594;9.294;2023-06-14T03:13:23;99086.97;;;20.50;81.54
18819;BME280;9537;45.594;9.294;2023-06-14T03:14:24;99083.22;;;20.51;81.50
18819;BME280;9537;45.594;9.294;2023-06-14T03:15:27;99088.84;;;20.50;81.44
18819;BME280;9537;45.594;9.294;2023-06-14T03:16:27;99086.97;;;20.50;81.59
18819;BME280;9537;45.594;9.294;2023-06-14T03:17:30;99086.97;;;20.50;81.45
18819;BME280;9537;45.594;9.294;2023-06-14T03:18:33;99087.22;;;20.48;81.36
18819;BME280;9537;45.594;9.294;2023-06-14T03:19:35;99084.88;;;20.52;81.13
18819;BME280;9537;45.594;9.294;2023-06-14T03:20:36;99085.09;;;20.51;81.43
18819;BME280;9537;45.594;9.294;2023-06-14T03:21:38;99082.41;;;20.51;81.62
18819;BME280;9537;45.594;9.294;2023-06-14T03:22:43;99073.91;;;20.54;81.39
18819;BME280;9537;45.594;9.294;2023-06-14T03:23:48;99075.19;;;20.51;81.58
18819;BME280;9537;45.594;9.294;2023-06-14T03:24:49;99077.31;;;20.49;81.75
18819;BME280;9537;45.594;9.294;2023-06-14T03:25:50;99073.00;;;20.48;81.87
18819;BME280;9537;45.594;9.294;2023-06-14T03:26:53;99080.75;;;20.44;82.08
18819;BME280;9537;45.594;9.294;2023-06-14T03:27:55;99075.94;;;20.46;81.96
18819;BME280;9537;45.594;9.294;2023-06-14T03:28:56;99073.78;;;20.43;82.17
18819;BME280;9537;45.594;9.294;2023-06-14T03:29:57;99070.53;;;20.41;82.17
18819;BME280;9537;45.594;9.294;2023-06-14T03:31:00;99079.69;;;20.45;82.22
18819;BME280;9537;45.594;9.294;2023-06-14T03:32:03;99074.06;;;20.47;81.95
18819;BME280;9537;45.594;9.294;2023-06-14T03:33:05;99077.84;;;20.46;81.75
18819;BME280;9537;45.594;9.294;2023-06-14T03:34:06;99068.41;;;20.43;81.32
18819;BME280;9537;45.594;9.294;2023-06-14T03:35:10;99064.66;;;20.44;81.58
18819;BME280;9537;45.594;9.294;2023-06-14T03:36:17;99073.00;;;20.48;81.66
18819;BME280;9537;45.594;9.294;2023-06-14T03:37:19;99062.22;;;20.43;82.05
18819;BME280;9537;45.594;9.294;2023-06-14T03:38:19;99062.19;;;20.38;82.39
18819;BME280;9537;45.594;9.294;2023-06-14T03:39:21;99063.78;;;20.39;82.08
18819;BME280;9537;45.594;9.294;2023-06-14T03:40:22;99058.44;;;20.39;82.08
18819;BME280;9537;45.594;9.294;2023-06-14T03:41:27;99056.25;;;20.36;82.33
18819;BME280;9537;45.594;9.294;2023-06-14T03:42:29;99060.00;;;20.35;82.94
18819;BME280;9537;45.594;9.294;2023-06-14T03:43:30;99055.75;;;20.39;82.79
18819;BME280;9537;45.594;9.294;2023-06-14T03:44:31;99057.34;;;20.40;82.45
18819;BME280;9537;45.594;9.294;2023-06-14T03:45:33;99052.19;;;20.33;82.79
18819;BME280;9537;45.594;9.294;2023-06-14T03:46:33;99054.63;;;20.35;82.56
18819;BME280;9537;45.594;9.294;2023-06-14T03:47:35;99052.47;;;20.32;82.88
18819;BME280;9537;45.594;9.294;2023-06-14T03:48:36;99048.78;;;20.38;82.89
18819;BME280;9537;45.594;9.294;2023-06-14T03:49:39;99057.84;;;20.37;83.15
18819;BME280;9537;45.594;9.294;2023-06-14T03:50:41;99052.50;;;20.37;83.29
18819;BME280;9537;45.594;9.294;2023-06-14T03:51:43;99047.63;;;20.34;83.45
18819;BME280;9537;45.594;9.294;2023-06-14T03:52:46;99052.47;;;20.32;83.62
18819;BME280;9537;45.594;9.294;2023-06-14T03:53:49;99049.22;;;20.30;83.65
18819;BME280;9537;45.594;9.294;2023-06-14T03:54:50;99055.88;;;20.27;83.86
18819;BME280;9537;45.594;9.294;2023-06-14T03:55:51;99058.50;;;20.22;83.50
18819;BME280;9537;45.594;9.294;2023-06-14T03:56:54;99059.56;;;20.21;83.49
18819;BME280;9537;45.594;9.294;2023-06-14T03:57:58;99053.41;;;20.20;83.97
18819;BME280;9537;45.594;9.294;2023-06-14T03:59:00;99059.31;;;20.22;83.70
18819;BME280;9537;45.594;9.294;2023-06-14T04:00:01;99054.50;;;20.24;83.84
18819;BME280;9537;45.594;9.294;2023-06-14T04:01:05;99063.66;;;20.29;83.36
18819;BME280;9537;45.594;9.294;2023-06-14T04:02:07;99064.72;;;20.28;82.97
18819;BME280;9537;45.594;9.294;2023-06-14T04:03:09;99065.03;;;20.31;83.00
18819;BME280;9537;45.594;9.294;2023-06-14T04:04:10;99070.66;;;20.30;83.08
18819;BME280;9537;45.594;9.294;2023-06-14T04:05:12;99074.34;;;20.23;83.17
18819;BME280;9537;45.594;9.294;2023-06-14T04:06:13;99065.72;;;20.21;83.50
18819;BME280;9537;45.594;9.294;2023-06-14T04:07:20;99069.22;;;20.22;83.29
18819;BME280;9537;45.594;9.294;2023-06-14T04:08:21;99070.28;;;20.21;83.85
18819;BME280;9537;45.594;9.294;2023-06-14T04:09:23;99070.84;;;20.23;83.63
18819;BME280;9537;45.594;9.294;2023-06-14T04:10:25;99075.16;;;20.24;83.31
18819;BME280;9537;45.594;9.294;2023-06-14T04:11:26;99069.53;;;20.25;83.42
18819;BME280;9537;45.594;9.294;2023-06-14T04:12:27;99078.63;;;20.24;83.51
18819;BME280;9537;45.594;9.294;2023-06-14T04:13:30;99071.16;;;20.27;83.52
18819;BME280;9537;45.594;9.294;2023-06-14T04:14:31;99073.84;;;20.27;83.54
18819;BME280;9537;45.594;9.294;2023-06-14T04:15:33;99071.97;;;20.27;83.18
18819;BME280;9537;45.594;9.294;2023-06-14T04:16:34;99074.66;;;20.27;83.39
18819;BME280;9537;45.594;9.294;2023-06-14T04:17:36;99072.78;;;20.28;83.77
18819;BME280;9537;45.594;9.294;2023-06-14T04:18:37;99064.22;;;20.31;83.53
18819;BME280;9537;45.594;9.294;2023-06-14T04:19:39;99076.59;;;20.32;83.77
18819;BME280;9537;45.594;9.294;2023-06-14T04:20:40;99070.16;;;20.33;83.79
18819;BME280;9537;45.594;9.294;2023-06-14T04:21:42;99074.44;;;20.34;83.49
18819;BME280;9537;45.594;9.294;2023-06-14T04:22:43;99072.34;;;20.36;83.05
18819;BME280;9537;45.594;9.294;2023-06-14T04:23:44;99071.84;;;20.39;82.71
18819;BME280;9537;45.594;9.294;2023-06-14T04:24:45;99069.72;;;20.41;82.46
18819;BME280;9537;45.594;9.294;2023-06-14T04:25:47;99071.59;;;20.40;81.98
18819;BME280;9537;45.594;9.294;2023-06-14T04:26:50;99072.34;;;20.36;82.20
18819;BME280;9537;45.594;9.294;2023-06-14T04:27:52;99072.84;;;20.33;82.47
18819;BME280;9537;45.594;9.294;2023-06-14T04:28:54;99081.13;;;20.31;82.55
18819;BME280;9537;45.594;9.294;2023-06-14T04:29:57;99076.53;;;20.27;82.58
18819;BME280;9537;45.594;9.294;2023-06-14T04:30:58;99071.53;;;20.35;82.15
18819;BME280;9537;45.594;9.294;2023-06-14T04:32:02;99068.28;;;20.33;82.25
18819;BME280;9537;45.594;9.294;2023-06-14T04:33:02;99077.41;;;20.32;82.20
18819;BME280;9537;45.594;9.294;2023-06-14T04:34:06;99076.03;;;20.30;82.86
18819;BME280;9537;45.594;9.294;2023-06-14T04:35:08;99072.03;;;20.32;82.38
18819;BME280;9537;45.594;9.294;2023-06-14T04:36:09;99069.09;;;20.34;81.84
18819;BME280;9537;45.594;9.294;2023-06-14T04:37:12;99068.47;;;20.27;82.37
18819;BME280;9537;45.594;9.294;2023-06-14T04:38:13;99072.47;;;20.24;82.83
18819;BME280;9537;45.594;9.294;2023-06-14T04:39:16;99069.00;;;20.23;83.24
18819;BME280;9537;45.594;9.294;2023-06-14T04:40:18;99075.38;;;20.22;83.66
18819;BME280;9537;45.594;9.294;2023-06-14T04:41:20;99075.16;;;20.24;83.75
18819;BME280;9537;45.594;9.294;2023-06-14T04:42:23;99068.22;;;20.28;83.69
18819;BME280;9537;45.594;9.294;2023-06-14T04:43:25;99070.91;;;20.28;83.35
18819;BME280;9537;45.594;9.294;2023-06-14T04:44:29;99073.84;;;20.27;83.30
18819;BME280;9537;45.594;9.294;2023-06-14T04:45:32;99074.88;;;20.25;83.31
18819;BME280;9537;45.594;9.294;2023-06-14T04:46:32;99080.31;;;20.31;83.08
18819;BME280;9537;45.594;9.294;2023-06-14T04:47:46;99074.97;;;20.31;83.30
18819;BME280;9537;45.594;9.294;2023-06-14T04:48:46;99076.03;;;20.30;83.37
18819;BME280;9537;45.594;9.294;2023-06-14T04:49:50;99075.47;;;20.28;83.21
18819;BME280;9537;45.594;9.294;2023-06-14T04:50:53;99074.34;;;20.23;83.56
18819;BME280;9537;45.594;9.294;2023-06-14T04:51:56;99079.38;;;20.20;83.71
18819;BME280;9537;45.594;9.294;2023-06-14T04:53:01;99083.41;;;20.17;83.98
18819;BME280;9537;45.594;9.294;2023-06-14T04:54:03;99072.41;;;20.19;83.66
18819;BME280;9537;45.594;9.294;2023-06-14T04:55:05;99075.09;;;20.19;84.19
18819;BME280;9537;45.594;9.294;2023-06-14T04:56:07;99070.00;;;20.17;84.67
18819;BME280;9537;45.594;9.294;2023-06-14T04:57:09;99072.91;;;20.16;84.62
18819;BME280;9537;45.594;9.294;2023-06-14T04:58:14;99073.22;;;20.19;84.07
18819;BME280;9537;45.594;9.294;2023-06-14T04:59:15;99074.34;;;20.23;83.84
18819;BME280;9537;45.594;9.294;2023-06-14T05:00:19;99074.09;;;20.25;83.14
18819;BME280;9537;45.594;9.294;2023-06-14T05:01:20;99079.38;;;20.20;83.32
18819;BME280;9537;45.594;9.294;2023-06-14T05:02:24;99081.03;;;20.21;83.51
18819;BME280;9537;45.594;9.294;2023-06-14T05:03:25;99082.13;;;20.25;83.56
18819;BME280;9537;45.594;9.294;2023-06-14T05:04:27;99088.25;;;20.20;83.88
18819;BME280;9537;45.594;9.294;2023-06-14T05:05:28;99074.28;;;20.18;84.23
18819;BME280;9537;45.594;9.294;2023-06-14T05:06:30;99087.69;;;20.18;84.60
18819;BME280;9537;45.594;9.294;2023-06-14T05:07:30;99083.94;;;20.19;84.50
18819;BME280;9537;45.594;9.294;2023-06-14T05:08:33;99085.56;;;20.20;84.58
18819;BME280;9537;45.594;9.294;2023-06-14T05:09:34;99086.06;;;20.17;84.47
18819;BME280;9537;45.594;9.294;2023-06-14T05:10:36;99091.91;;;20.14;84.98
18819;BME280;9537;45.594;9.294;2023-06-14T05:11:37;99088.44;;;20.14;84.99
18819;BME280;9537;45.594;9.294;2023-06-14T05:12:38;99090.38;;;20.18;84.56
18819;BME280;9537;45.594;9.294;2023-06-14T05:13:39;99090.69;;;20.22;83.84
18819;BME280;9537;45.594;9.294;2023-06-14T05:14:41;99098.41;;;20.18;84.05
18819;BME280;9537;45.594;9.294;2023-06-14T05:15:43;99097.03;;;20.16;84.12
18819;BME280;9537;45.594;9.294;2023-06-14T05:16:45;99099.72;;;20.16;84.26
18819;BME280;9537;45.594;9.294;2023-06-14T05:17:46;99096.81;;;20.17;84.23
18819;BME280;9537;45.594;9.294;2023-06-14T05:18:53;99098.97;;;20.20;83.84
18819;BME280;9537;45.594;9.294;2023-06-14T05:19:54;99101.09;;;20.18;84.39
18819;BME280;9537;45.594;9.294;2023-06-14T05:20:56;99104.59;;;20.19;84.71
18819;BME280;9537;45.594;9.294;2023-06-14T05:21:58;99097.84;;;20.16;85.28
18819;BME280;9537;45.594;9.294;2023-06-14T05:22:58;99100.31;;;20.23;84.67
18819;BME280;9537;45.594;9.294;2023-06-14T05:24:00;99099.28;;;20.24;83.91
18819;BME280;9537;45.594;9.294;2023-06-14T05:25:01;99102.47;;;20.21;83.96
18819;BME280;9537;45.594;9.294;2023-06-14T05:26:02;99092.63;;;20.27;84.20
18819;BME280;9537;45.594;9.294;2023-06-14T05:27:05;99102.28;;;20.28;84.37
18819;BME280;9537;45.594;9.294;2023-06-14T05:28:07;99096.91;;;20.28;84.23
18819;BME280;9537;45.594;9.294;2023-06-14T05:29:08;99109.00;;;20.30;84.29
18819;BME280;9537;45.594;9.294;2023-06-14T05:30:10;99106.56;;;20.29;84.39
18819;BME280;9537;45.594;9.294;2023-06-14T05:31:13;99106.31;;;20.30;84.31
18819;BME280;9537;45.594;9.294;2023-06-14T05:32:14;99098.28;;;20.30;84.52
18819;BME280;9537;45.594;9.294;2023-06-14T05:33:15;99107.63;;;20.28;84.54